sensor_id;sensor_type;location;lat;lon;timestamp;P1;durP1;ratioP1;P2;durP2;ratioP2
22571;SDS011;11452;53.368;14.658;2022-08-01T00:01:23;3.97;;;1.70;;
22571;SDS011;11452;53.368;14.658;2022-08-01T00:06:29;2.17;;;1.97;;
22571;SDS011;11452;53.368;14.658;2022-08-01T00:11:35;3.23;;;2.10;;
22571;SDS011;11452;53.368;14.658;2022-08-01T00:16:40;2.03;;;1.83;;
22571;SDS011;11452;53.368;14.658;2022-08-01T00:21:46;2.53;;;1.40;;
22571;SDS011;11452;53.368;14.658;2022-08-01T00:26:54;3.60;;;1.60;;
22571;SDS011;11452;53.368;14.658;2022-08-01T00:31:59;2.20;;;1.93;;
22571;SDS011;11452;53.368;14.658;2022-08-01T00:37:06;1.90;;;1.73;;
22571;SDS011;11452;53.368;14.658;2022-08-01T00:42:13;2.53;;;1.90;;
22571;SDS011;11452;53.368;14.658;2022-08-01T00:47:19;2.20;;;1.83;;
22571;SDS011;11452;53.368;14.658;2022-08-01T00:52:24;3.13;;;1.90;;
22571;SDS011;11452;53.368;14.658;2022-08-01T00:57:30;3.13;;;2.10;;
22571;SDS011;11452;53.368;14.658;2022-08-01T01:02:38;4.43;;;1.90;;
22571;SDS011;11452;53.368;14.658;2022-08-01T01:07:46;2.33;;;1.97;;
22571;SDS011;11452;53.368;14.658;2022-08-01T01:13:04;3.60;;;1.90;;
22571;SDS011;11452;53.368;14.658;2022-08-01T01:29:11;2.30;;;1.93;;
22571;SDS011;11452;53.368;14.658;2022-08-01T01:34:20;3.30;;;2.20;;
22571;SDS011;11452;53.368;14.658;2022-08-01T01:39:28;2.30;;;2.10;;
22571;SDS011;11452;53.368;14.658;2022-08-01T01:44:37;2.57;;;2.10;;
22571;SDS011;11452;53.368;14.658;2022-08-01T01:49:44;2.30;;;2.10;;
22571;SDS011;11452;53.368;14.658;2022-08-01T01:54:52;2.37;;;2.03;;
22571;SDS011;11452;53.368;14.658;2022-08-01T02:00:01;3.07;;;2.33;;
22571;SDS011;11452;53.368;14.658;2022-08-01T02:05:10;2.00;;;1.90;;
22571;SDS011;11452;53.368;14.658;2022-08-01T02:10:17;2.20;;;2.00;;
22571;SDS011;11452;53.368;14.658;2022-08-01T02:15:25;2.13;;;1.93;;
22571;SDS011;11452;53.368;14.658;2022-08-01T02:20:32;2.90;;;1.70;;
22571;SDS011;11452;53.368;14.658;2022-08-01T02:25:49;3.43;;;2.10;;
22571;SDS011;11452;53.368;14.658;2022-08-01T02:30:54;1.93;;;1.80;;
22571;SDS011;11452;53.368;14.658;2022-08-01T02:36:05;2.03;;;1.83;;
22571;SDS011;11452;53.368;14.658;2022-08-01T02:41:17;2.93;;;2.00;;
22571;SDS011;11452;53.368;14.658;2022-08-01T02:46:26;3.33;;;2.30;;
22571;SDS011;11452;53.368;14.658;2022-08-01T02:51:39;3.47;;;1.93;;
22571;SDS011;11452;53.368;14.658;2022-08-01T02:56:46;2.10;;;1.90;;
22571;SDS011;11452;53.368;14.658;2022-08-01T03:01:59;2.83;;;1.87;;
22571;SDS011;11452;53.368;14.658;2022-08-01T03:07:03;2.20;;;2.00;;
22571;SDS011;11452;53.368;14.658;2022-08-01T03:12:16;2.33;;;2.10;;
22571;SDS011;11452;53.368;14.658;2022-08-01T03:17:19;2.80;;;1.90;;
22571;SDS011;11452;53.368;14.658;2022-08-01T03:22:28;5.93;;;2.20;;
22571;SDS011;11452;53.368;14.658;2022-08-01T03:27:35;2.23;;;1.73;;
22571;SDS011;11452;53.368;14.658;2022-08-01T03:32:41;2.47;;;2.07;;
22571;SDS011;11452;53.368;14.658;2022-08-01T03:37:48;3.03;;;2.17;;
22571;SDS011;11452;53.368;14.658;2022-08-01T03:43:05;2.30;;;2.10;;
22571;SDS011;11452;53.368;14.658;2022-08-01T03:48:29;2.30;;;1.67;;
22571;SDS011;11452;53.368;14.658;2022-08-01T03:53:38;2.00;;;1.80;;
22571;SDS011;11452;53.368;14.658;2022-08-01T03:58:45;4.10;;;1.90;;
22571;SDS011;11452;53.368;14.658;2022-08-01T04:03:52;1.83;;;1.73;;
22571;SDS011;11452;53.368;14.658;2022-08-01T04:08:59;4.37;;;2.40;;
22571;SDS011;11452;53.368;14.658;2022-08-01T04:14:05;1.80;;;1.70;;
22571;SDS011;11452;53.368;14.658;2022-08-01T04:19:11;3.37;;;1.70;;
22571;SDS011;11452;53.368;14.658;2022-08-01T04:24:17;1.63;;;1.53;;
22571;SDS011;11452;53.368;14.658;2022-08-01T04:29:24;2.40;;;2.10;;
22571;SDS011;11452;53.368;14.658;2022-08-01T04:34:32;5.00;;;2.20;;
22571;SDS011;11452;53.368;14.658;2022-08-01T04:39:39;3.17;;;2.30;;
22571;SDS011;11452;53.368;14.658;2022-08-01T04:44:49;3.47;;;2.53;;
22571;SDS011;11452;53.368;14.658;2022-08-01T04:49:55;3.90;;;2.40;;
22571;SDS011;11452;53.368;14.658;2022-08-01T04:55:02;4.83;;;2.37;;
22571;SDS011;11452;53.368;14.658;2022-08-01T05:00:09;4.87;;;2.53;;
22571;SDS011;11452;53.368;14.658;2022-08-01T05:05:16;3.63;;;2.60;;
22571;SDS011;11452;53.368;14.658;2022-08-01T05:10:23;4.03;;;2.40;;
22571;SDS011;11452;53.368;14.658;2022-08-01T05:15:29;3.30;;;2.70;;
22571;SDS011;11452;53.368;14.658;2022-08-01T05:20:35;3.30;;;2.40;;
22571;SDS011;11452;53.368;14.658;2022-08-01T05:25:41;3.53;;;2.23;;
22571;SDS011;11452;53.368;14.658;2022-08-01T05:30:48;2.93;;;2.30;;
22571;SDS011;11452;53.368;14.658;2022-08-01T05:35:54;3.10;;;2.27;;
22571;SDS011;11452;53.368;14.658;2022-08-01T05:41:00;3.67;;;2.47;;
22571;SDS011;11452;53.368;14.658;2022-08-01T05:46:05;2.20;;;2.00;;
22571;SDS011;11452;53.368;14.658;2022-08-01T05:51:11;2.70;;;2.03;;
22571;SDS011;11452;53.368;14.658;2022-08-01T05:56:16;3.00;;;2.10;;
22571;SDS011;11452;53.368;14.658;2022-08-01T06:01:23;2.10;;;1.90;;
22571;SDS011;11452;53.368;14.658;2022-08-01T06:06:29;3.67;;;2.40;;
22571;SDS011;11452;53.368;14.658;2022-08-01T06:11:35;2.57;;;2.10;;
22571;SDS011;11452;53.368;14.658;2022-08-01T06:16:41;5.63;;;2.23;;
22571;SDS011;11452;53.368;14.658;2022-08-01T06:21:46;5.00;;;2.47;;
22571;SDS011;11452;53.368;14.658;2022-08-01T06:26:52;5.13;;;2.43;;
22571;SDS011;11452;53.368;14.658;2022-08-01T06:31:58;3.97;;;2.27;;
22571;SDS011;11452;53.368;14.658;2022-08-01T06:37:04;2.33;;;2.17;;
22571;SDS011;11452;53.368;14.658;2022-08-01T06:42:10;3.37;;;2.20;;
22571;SDS011;11452;53.368;14.658;2022-08-01T06:47:17;2.50;;;2.30;;
22571;SDS011;11452;53.368;14.658;2022-08-01T06:52:23;4.20;;;2.60;;
22571;SDS011;11452;53.368;14.658;2022-08-01T06:57:29;4.03;;;2.10;;
22571;SDS011;11452;53.368;14.658;2022-08-01T07:02:35;2.90;;;2.00;;
22571;SDS011;11452;53.368;14.658;2022-08-01T07:07:40;3.80;;;2.30;;
22571;SDS011;11452;53.368;14.658;2022-08-01T07:12:46;4.37;;;2.57;;
22571;SDS011;11452;53.368;14.658;2022-08-01T07:17:52;6.00;;;2.30;;
22571;SDS011;11452;53.368;14.658;2022-08-01T07:22:58;4.23;;;2.40;;
22571;SDS011;11452;53.368;14.658;2022-08-01T07:28:04;3.20;;;2.10;;
22571;SDS011;11452;53.368;14.658;2022-08-01T07:33:10;2.67;;;2.37;;
22571;SDS011;11452;53.368;14.658;2022-08-01T07:38:16;2.50;;;1.90;;
22571;SDS011;11452;53.368;14.658;2022-08-01T07:43:21;3.33;;;2.50;;
22571;SDS011;11452;53.368;14.658;2022-08-01T07:48:27;2.57;;;2.30;;
22571;SDS011;11452;53.368;14.658;2022-08-01T07:53:32;2.63;;;2.43;;
22571;SDS011;11452;53.368;14.658;2022-08-01T07:58:38;2.97;;;2.27;;
22571;SDS011;11452;53.368;14.658;2022-08-01T08:03:44;2.63;;;2.30;;
22571;SDS011;11452;53.368;14.658;2022-08-01T08:08:49;3.40;;;2.63;;
22571;SDS011;11452;53.368;14.658;2022-08-01T08:13:57;3.53;;;3.07;;
22571;SDS011;11452;53.368;14.658;2022-08-01T08:19:02;4.90;;;3.00;;
22571;SDS011;11452;53.368;14.658;2022-08-01T08:24:08;3.07;;;2.60;;
22571;SDS011;11452;53.368;14.658;2022-08-01T08:29:18;3.70;;;2.77;;
22571;SDS011;11452;53.368;14.658;2022-08-01T08:34:26;2.80;;;2.47;;
22571;SDS011;11452;53.368;14.658;2022-08-01T08:39:32;4.17;;;2.93;;
22571;SDS011;11452;53.368;14.658;2022-08-01T08:44:40;7.23;;;3.40;;
22571;SDS011;11452;53.368;14.658;2022-08-01T08:49:52;6.97;;;3.43;;
22571;SDS011;11452;53.368;14.658;2022-08-01T08:54:59;4.47;;;3.30;;
22571;SDS011;11452;53.368;14.658;2022-08-01T09:00:06;5.87;;;2.90;;
22571;SDS011;11452;53.368;14.658;2022-08-01T09:05:14;5.80;;;3.40;;
22571;SDS011;11452;53.368;14.658;2022-08-01T09:10:22;4.93;;;3.83;;
22571;SDS011;11452;53.368;14.658;2022-08-01T09:20:46;5.93;;;5.33;;
22571;SDS011;11452;53.368;14.658;2022-08-01T09:25:51;4.70;;;4.33;;
22571;SDS011;11452;53.368;14.658;2022-08-01T09:31:07;4.93;;;4.00;;
22571;SDS011;11452;53.368;14.658;2022-08-01T09:36:20;8.27;;;6.47;;
22571;SDS011;11452;53.368;14.658;2022-08-01T09:41:30;9.40;;;7.73;;
22571;SDS011;11452;53.368;14.658;2022-08-01T09:47:02;10.60;;;7.60;;
22571;SDS011;11452;53.368;14.658;2022-08-01T09:51:57;8.50;;;7.57;;
22571;SDS011;11452;53.368;14.658;2022-08-01T09:57:12;10.80;;;9.70;;
22571;SDS011;11452;53.368;14.658;2022-08-01T10:02:32;10.63;;;9.37;;
22571;SDS011;11452;53.368;14.658;2022-08-01T10:07:55;9.30;;;8.40;;
22571;SDS011;11452;53.368;14.658;2022-08-01T10:13:02;10.73;;;9.57;;
22571;SDS011;11452;53.368;14.658;2022-08-01T10:18:10;9.27;;;8.20;;
22571;SDS011;11452;53.368;14.658;2022-08-01T10:23:19;9.40;;;8.10;;
22571;SDS011;11452;53.368;14.658;2022-08-01T10:28:27;10.43;;;8.17;;
22571;SDS011;11452;53.368;14.658;2022-08-01T10:33:38;7.33;;;6.60;;
22571;SDS011;11452;53.368;14.658;2022-08-01T10:38:49;6.47;;;5.87;;
22571;SDS011;11452;53.368;14.658;2022-08-01T10:43:55;7.17;;;5.83;;
22571;SDS011;11452;53.368;14.658;2022-08-01T10:49:24;6.27;;;5.57;;
22571;SDS011;11452;53.368;14.658;2022-08-01T10:54:38;7.23;;;6.13;;
22571;SDS011;11452;53.368;14.658;2022-08-01T10:59:47;10.67;;;9.60;;
22571;SDS011;11452;53.368;14.658;2022-08-01T11:15:46;10.07;;;9.07;;
22571;SDS011;11452;53.368;14.658;2022-08-01T11:21:01;10.03;;;9.13;;
22571;SDS011;11452;53.368;14.658;2022-08-01T11:26:09;11.93;;;9.27;;
22571;SDS011;11452;53.368;14.658;2022-08-01T11:36:25;10.77;;;9.77;;
22571;SDS011;11452;53.368;14.658;2022-08-01T11:41:33;11.77;;;10.43;;
22571;SDS011;11452;53.368;14.658;2022-08-01T11:46:54;9.93;;;9.03;;
22571;SDS011;11452;53.368;14.658;2022-08-01T11:52:04;11.07;;;8.90;;
22571;SDS011;11452;53.368;14.658;2022-08-01T11:57:12;10.37;;;9.37;;
22571;SDS011;11452;53.368;14.658;2022-08-01T12:02:21;10.33;;;8.73;;
22571;SDS011;11452;53.368;14.658;2022-08-01T12:07:31;10.87;;;9.70;;
22571;SDS011;11452;53.368;14.658;2022-08-01T12:12:44;15.73;;;10.83;;
22571;SDS011;11452;53.368;14.658;2022-08-01T12:17:56;10.20;;;9.13;;
22571;SDS011;11452;53.368;14.658;2022-08-01T12:23:04;10.57;;;9.57;;
22571;SDS011;11452;53.368;14.658;2022-08-01T12:28:11;8.50;;;7.63;;
22571;SDS011;11452;53.368;14.658;2022-08-01T12:33:18;8.97;;;7.53;;
22571;SDS011;11452;53.368;14.658;2022-08-01T12:38:26;9.77;;;8.87;;
22571;SDS011;11452;53.368;14.658;2022-08-01T12:43:33;8.93;;;8.23;;
22571;SDS011;11452;53.368;14.658;2022-08-01T12:48:39;8.83;;;8.00;;
22571;SDS011;11452;53.368;14.658;2022-08-01T12:53:44;8.87;;;8.07;;
22571;SDS011;11452;53.368;14.658;2022-08-01T12:58:52;9.90;;;8.90;;
22571;SDS011;11452;53.368;14.658;2022-08-01T13:04:02;9.70;;;8.83;;
22571;SDS011;11452;53.368;14.658;2022-08-01T13:09:09;9.83;;;8.07;;
22571;SDS011;11452;53.368;14.658;2022-08-01T13:14:28;9.90;;;9.13;;
22571;SDS011;11452;53.368;14.658;2022-08-01T13:19:42;9.60;;;8.77;;
22571;SDS011;11452;53.368;14.658;2022-08-01T13:24:50;9.37;;;8.47;;
22571;SDS011;11452;53.368;14.658;2022-08-01T13:29:56;10.07;;;9.17;;
22571;SDS011;11452;53.368;14.658;2022-08-01T13:35:05;10.10;;;9.17;;
22571;SDS011;11452;53.368;14.658;2022-08-01T13:40:12;11.47;;;10.27;;
22571;SDS011;11452;53.368;14.658;2022-08-01T13:45:21;11.07;;;10.07;;
22571;SDS011;11452;53.368;14.658;2022-08-01T13:50:28;10.93;;;9.97;;
22571;SDS011;11452;53.368;14.658;2022-08-01T13:55:35;11.13;;;10.10;;
22571;SDS011;11452;53.368;14.658;2022-08-01T14:00:41;11.20;;;9.93;;
22571;SDS011;11452;53.368;14.658;2022-08-01T14:05:47;10.40;;;9.33;;
22571;SDS011;11452;53.368;14.658;2022-08-01T14:10:55;10.30;;;9.30;;
22571;SDS011;11452;53.368;14.658;2022-08-01T14:16:02;7.23;;;6.63;;
22571;SDS011;11452;53.368;14.658;2022-08-01T14:21:11;6.78;;;6.20;;
22571;SDS011;11452;53.368;14.658;2022-08-01T14:26:18;3.87;;;3.53;;
22571;SDS011;11452;53.368;14.658;2022-08-01T14:31:23;3.20;;;2.93;;
22571;SDS011;11452;53.368;14.658;2022-08-01T14:36:31;3.80;;;3.27;;
22571;SDS011;11452;53.368;14.658;2022-08-01T14:41:38;4.23;;;3.63;;
22571;SDS011;11452;53.368;14.658;2022-08-01T14:46:44;4.40;;;4.00;;
22571;SDS011;11452;53.368;14.658;2022-08-01T14:51:53;3.90;;;3.60;;
22571;SDS011;11452;53.368;14.658;2022-08-01T14:56:59;4.50;;;4.20;;
22571;SDS011;11452;53.368;14.658;2022-08-01T15:02:04;5.00;;;4.60;;
22571;SDS011;11452;53.368;14.658;2022-08-01T15:07:11;5.03;;;4.72;;
22571;SDS011;11452;53.368;14.658;2022-08-01T15:12:17;5.65;;;5.12;;
22571;SDS011;11452;53.368;14.658;2022-08-01T15:17:24;5.20;;;4.80;;
22571;SDS011;11452;53.368;14.658;2022-08-01T15:22:33;4.47;;;4.17;;
22571;SDS011;11452;53.368;14.658;2022-08-01T15:27:39;5.47;;;5.00;;
22571;SDS011;11452;53.368;14.658;2022-08-01T15:32:44;4.90;;;4.40;;
22571;SDS011;11452;53.368;14.658;2022-08-01T15:37:51;5.07;;;4.67;;
22571;SDS011;11452;53.368;14.658;2022-08-01T15:42:57;6.23;;;5.63;;
22571;SDS011;11452;53.368;14.658;2022-08-01T15:48:02;6.07;;;5.47;;
22571;SDS011;11452;53.368;14.658;2022-08-01T15:53:08;6.93;;;6.10;;
22571;SDS011;11452;53.368;14.658;2022-08-01T15:58:14;6.03;;;5.53;;
22571;SDS011;11452;53.368;14.658;2022-08-01T16:03:19;6.00;;;5.50;;
22571;SDS011;11452;53.368;14.658;2022-08-01T16:08:25;5.63;;;5.13;;
22571;SDS011;11452;53.368;14.658;2022-08-01T16:13:31;5.47;;;5.07;;
22571;SDS011;11452;53.368;14.658;2022-08-01T16:18:36;5.77;;;5.23;;
22571;SDS011;11452;53.368;14.658;2022-08-01T16:23:42;5.70;;;5.13;;
22571;SDS011;11452;53.368;14.658;2022-08-01T16:28:48;4.90;;;4.50;;
22571;SDS011;11452;53.368;14.658;2022-08-01T16:33:55;4.00;;;3.80;;
22571;SDS011;11452;53.368;14.658;2022-08-01T16:39:02;3.60;;;3.30;;
22571;SDS011;11452;53.368;14.658;2022-08-01T16:44:10;3.17;;;2.97;;
22571;SDS011;11452;53.368;14.658;2022-08-01T16:49:15;4.90;;;2.90;;
22571;SDS011;11452;53.368;14.658;2022-08-01T16:54:23;2.90;;;2.53;;
22571;SDS011;11452;53.368;14.658;2022-08-01T16:59:29;2.23;;;2.00;;
22571;SDS011;11452;53.368;14.658;2022-08-01T17:04:35;1.60;;;1.50;;
22571;SDS011;11452;53.368;14.658;2022-08-01T17:09:41;1.50;;;1.40;;
22571;SDS011;11452;53.368;14.658;2022-08-01T17:14:46;1.63;;;1.53;;
22571;SDS011;11452;53.368;14.658;2022-08-01T17:19:53;1.60;;;1.50;;
22571;SDS011;11452;53.368;14.658;2022-08-01T17:24:58;3.27;;;1.50;;
22571;SDS011;11452;53.368;14.658;2022-08-01T17:30:05;1.63;;;1.53;;
22571;SDS011;11452;53.368;14.658;2022-08-01T17:35:11;1.70;;;1.60;;
22571;SDS011;11452;53.368;14.658;2022-08-01T17:40:16;8.13;;;2.13;;
22571;SDS011;11452;53.368;14.658;2022-08-01T17:45:24;2.40;;;1.70;;
22571;SDS011;11452;53.368;14.658;2022-08-01T17:50:31;1.83;;;1.50;;
22571;SDS011;11452;53.368;14.658;2022-08-01T17:55:37;1.90;;;1.80;;
22571;SDS011;11452;53.368;14.658;2022-08-01T18:00:45;4.27;;;2.50;;
22571;SDS011;11452;53.368;14.658;2022-08-01T18:05:51;2.20;;;2.10;;
22571;SDS011;11452;53.368;14.658;2022-08-01T18:10:58;2.10;;;2.00;;
22571;SDS011;11452;53.368;14.658;2022-08-01T18:16:04;2.13;;;2.00;;
22571;SDS011;11452;53.368;14.658;2022-08-01T18:21:13;4.10;;;2.67;;
22571;SDS011;11452;53.368;14.658;2022-08-01T18:26:20;2.27;;;2.07;;
22571;SDS011;11452;53.368;14.658;2022-08-01T18:31:26;2.63;;;2.33;;
22571;SDS011;11452;53.368;14.658;2022-08-01T18:36:31;4.30;;;3.17;;
22571;SDS011;11452;53.368;14.658;2022-08-01T18:41:38;4.47;;;3.10;;
22571;SDS011;11452;53.368;14.658;2022-08-01T18:46:44;3.80;;;3.17;;
22571;SDS011;11452;53.368;14.658;2022-08-01T18:51:50;4.27;;;3.27;;
22571;SDS011;11452;53.368;14.658;2022-08-01T18:56:56;5.10;;;3.30;;
22571;SDS011;11452;53.368;14.658;2022-08-01T19:02:03;5.97;;;2.93;;
22571;SDS011;11452;53.368;14.658;2022-08-01T19:07:08;5.53;;;3.70;;
22571;SDS011;11452;53.368;14.658;2022-08-01T19:12:14;3.30;;;2.87;;
22571;SDS011;11452;53.368;14.658;2022-08-01T19:17:19;3.50;;;2.50;;
22571;SDS011;11452;53.368;14.658;2022-08-01T19:22:27;3.40;;;2.90;;
22571;SDS011;11452;53.368;14.658;2022-08-01T19:27:32;4.27;;;2.40;;
22571;SDS011;11452;53.368;14.658;2022-08-01T19:32:43;2.97;;;2.40;;
22571;SDS011;11452;53.368;14.658;2022-08-01T19:37:51;3.03;;;2.40;;
22571;SDS011;11452;53.368;14.658;2022-08-01T19:42:57;2.63;;;2.23;;
22571;SDS011;11452;53.368;14.658;2022-08-01T19:48:05;2.50;;;2.30;;
22571;SDS011;11452;53.368;14.658;2022-08-01T19:53:10;4.23;;;2.27;;
22571;SDS011;11452;53.368;14.658;2022-08-01T19:58:18;4.77;;;2.37;;
22571;SDS011;11452;53.368;14.658;2022-08-01T20:03:27;3.77;;;2.60;;
22571;SDS011;11452;53.368;14.658;2022-08-01T20:08:35;2.77;;;2.43;;
22571;SDS011;11452;53.368;14.658;2022-08-01T20:13:41;3.13;;;2.10;;
22571;SDS011;11452;53.368;14.658;2022-08-01T20:18:48;4.00;;;2.13;;
22571;SDS011;11452;53.368;14.658;2022-08-01T20:23:54;2.93;;;2.23;;
22571;SDS011;11452;53.368;14.658;2022-08-01T20:29:05;2.30;;;2.10;;
22571;SDS011;11452;53.368;14.658;2022-08-01T20:34:25;3.33;;;2.10;;
22571;SDS011;11452;53.368;14.658;2022-08-01T20:39:31;2.97;;;2.10;;
22571;SDS011;11452;53.368;14.658;2022-08-01T20:44:39;3.43;;;2.03;;
22571;SDS011;11452;53.368;14.658;2022-08-01T20:49:45;2.50;;;2.30;;
22571;SDS011;11452;53.368;14.658;2022-08-01T20:54:52;3.13;;;2.83;;
22571;SDS011;11452;53.368;14.658;2022-08-01T21:00:03;5.00;;;3.30;;
22571;SDS011;11452;53.368;14.658;2022-08-01T21:05:10;4.50;;;3.30;;
22571;SDS011;11452;53.368;14.658;2022-08-01T21:10:24;3.57;;;2.57;;
22571;SDS011;11452;53.368;14.658;2022-08-01T21:20:51;3.53;;;3.20;;
22571;SDS011;11452;53.368;14.658;2022-08-01T21:25:58;5.17;;;3.10;;
22571;SDS011;11452;53.368;14.658;2022-08-01T21:31:04;3.83;;;2.67;;
22571;SDS011;11452;53.368;14.658;2022-08-01T21:36:14;2.90;;;2.60;;
22571;SDS011;11452;53.368;14.658;2022-08-01T21:41:21;3.03;;;2.27;;
22571;SDS011;11452;53.368;14.658;2022-08-01T21:46:31;4.07;;;2.33;;
22571;SDS011;11452;53.368;14.658;2022-08-01T21:52:25;2.97;;;2.27;;
22571;SDS011;11452;53.368;14.658;2022-08-01T22:02:21;2.50;;;2.03;;
22571;SDS011;11452;53.368;14.658;2022-08-01T22:07:23;2.47;;;2.10;;
22571;SDS011;11452;53.368;14.658;2022-08-01T22:12:31;2.43;;;2.23;;
22571;SDS011;11452;53.368;14.658;2022-08-01T22:17:39;5.53;;;2.33;;
22571;SDS011;11452;53.368;14.658;2022-08-01T22:22:47;3.60;;;2.10;;
22571;SDS011;11452;53.368;14.658;2022-08-01T22:27:55;2.87;;;2.13;;
22571;SDS011;11452;53.368;14.658;2022-08-01T22:33:03;3.97;;;2.10;;
22571;SDS011;11452;53.368;14.658;2022-08-01T22:38:10;6.47;;;2.70;;
22571;SDS011;11452;53.368;14.658;2022-08-01T22:43:22;3.77;;;2.33;;
22571;SDS011;11452;53.368;14.658;2022-08-01T22:48:30;3.03;;;2.23;;
22571;SDS011;11452;53.368;14.658;2022-08-01T22:53:39;3.77;;;2.27;;
22571;SDS011;11452;53.368;14.658;2022-08-01T22:58:47;5.07;;;2.07;;
22571;SDS011;11452;53.368;14.658;2022-08-01T23:03:53;5.57;;;2.40;;
22571;SDS011;11452;53.368;14.658;2022-08-01T23:09:01;4.90;;;2.70;;
22571;SDS011;11452;53.368;14.658;2022-08-01T23:14:07;4.33;;;2.97;;
22571;SDS011;11452;53.368;14.658;2022-08-01T23:19:13;4.10;;;1.83;;
22571;SDS011;11452;53.368;14.658;2022-08-01T23:24:20;4.67;;;1.80;;
22571;SDS011;11452;53.368;14.658;2022-08-01T23:29:26;4.27;;;2.17;;
22571;SDS011;11452;53.368;14.658;2022-08-01T23:34:32;3.77;;;1.80;;
22571;SDS011;11452;53.368;14.658;2022-08-01T23:39:38;3.73;;;1.80;;
22571;SDS011;11452;53.368;14.658;2022-08-01T23:44:44;1.40;;;1.30;;
22571;SDS011;11452;53.368;14.658;2022-08-01T23:49:51;4.47;;;2.20;;
22571;SDS011;11452;53.368;14.658;2022-08-01T23:54:56;4.23;;;1.77;;
